TimePDT,TemperatureF,Dew PointF,Humidity,Sea Level PressureIn,VisibilityMPH,Wind Direction,Wind SpeedMPH,Gust SpeedMPH,PrecipitationIn,Events,Conditions,WindDirDegrees,DateUTC
12:56 AM,60.1,42.1,51,30.09,10.0,Calm,Calm,-,N/A,,Clear,0,2011-10-30 07:56:00
1:56 AM,57.0,42.1,57,30.09,10.0,Calm,Calm,-,N/A,,Clear,0,2011-10-30 08:56:00
2:56 AM,57.0,43.0,59,30.09,10.0,Calm,Calm,-,N/A,,Clear,0,2011-10-30 09:56:00
3:56 AM,55.9,43.0,62,30.09,10.0,Calm,Calm,-,N/A,,Clear,0,2011-10-30 10:56:00
4:56 AM,55.0,42.1,62,30.09,10.0,Calm,Calm,-,N/A,,Clear,0,2011-10-30 11:56:00
5:56 AM,55.0,43.0,64,30.10,10.0,Calm,Calm,-,N/A,,Clear,0,2011-10-30 12:56:00
7:56 AM,53.1,44.1,71,30.12,10.0,Calm,Calm,-,N/A,,Clear,0,2011-10-30 14:56:00
8:56 AM,60.1,46.9,62,30.13,10.0,Calm,Calm,-,N/A,,Clear,0,2011-10-30 15:56:00
9:56 AM,66.0,48.9,54,30.13,10.0,Calm,Calm,-,N/A,,Clear,0,2011-10-30 16:56:00
10:56 AM,69.1,50.0,51,30.13,10.0,Calm,Calm,-,N/A,,Clear,0,2011-10-30 17:56:00
11:56 AM,72.0,46.0,40,30.12,10.0,North,4.6,-,N/A,,Clear,350,2011-10-30 18:56:00
12:56 PM,75.0,46.9,37,30.09,10.0,NNW,5.8,-,N/A,,Clear,340,2011-10-30 19:56:00
1:56 PM,80.1,52.0,38,30.07,10.0,NNW,6.9,-,N/A,,Clear,330,2011-10-30 20:56:00
2:56 PM,79.0,48.9,35,30.06,10.0,NNW,11.5,-,N/A,,Clear,340,2011-10-30 21:56:00
3:56 PM,79.0,48.0,34,30.05,10.0,NNW,10.4,-,N/A,,Clear,340,2011-10-30 22:56:00
4:56 PM,78.1,50.0,37,30.04,10.0,NNW,5.8,-,N/A,,Clear,330,2011-10-30 23:56:00
5:56 PM,71.1,55.0,57,30.05,10.0,North,4.6,-,N/A,,Clear,10,2011-10-31 00:56:00
6:56 PM,69.1,52.0,54,30.06,10.0,NW,3.5,-,N/A,,Clear,320,2011-10-31 01:56:00
7:56 PM,69.1,51.1,53,30.07,10.0,WNW,3.5,-,N/A,,Clear,300,2011-10-31 02:56:00
8:56 PM,66.9,53.1,61,30.07,10.0,Calm,Calm,-,N/A,,Clear,0,2011-10-31 03:56:00
9:56 PM,63.0,53.1,70,30.09,10.0,Calm,Calm,-,N/A,,Clear,0,2011-10-31 04:56:00
10:56 PM,63.0,54.0,72,30.09,10.0,Calm,Calm,-,N/A,,Clear,0,2011-10-31 05:56:00
11:56 PM,61.0,53.1,75,30.09,10.0,Calm,Calm,-,N/A,,Clear,0,2011-10-31 06:56:00